sensor_id;sensor_type;location;lat;lon;timestamp;P1;durP1;ratioP1;P2;durP2;ratioP2
41627;SDS011;27321;50.816;6.054;2023-02-01T00:02:17;19.85;;;7.45;;
41627;SDS011;27321;50.816;6.054;2023-02-01T00:05:18;17.03;;;8.37;;
41627;SDS011;27321;50.816;6.054;2023-02-01T00:08:19;17.67;;;8.20;;
41627;SDS011;27321;50.816;6.054;2023-02-01T00:11:20;17.87;;;8.60;;
41627;SDS011;27321;50.816;6.054;2023-02-01T00:14:22;15.77;;;7.83;;
41627;SDS011;27321;50.816;6.054;2023-02-01T00:17:23;16.40;;;8.73;;
41627;SDS011;27321;50.816;6.054;2023-02-01T00:20:24;13.82;;;8.13;;
41627;SDS011;27321;50.816;6.054;2023-02-01T00:23:25;14.90;;;7.73;;
41627;SDS011;27321;50.816;6.054;2023-02-01T00:29:34;12.60;;;7.73;;
41627;SDS011;27321;50.816;6.054;2023-02-01T00:32:35;17.37;;;8.63;;
41627;SDS011;27321;50.816;6.054;2023-02-01T00:35:36;16.87;;;8.20;;
41627;SDS011;27321;50.816;6.054;2023-02-01T00:38:37;20.70;;;9.17;;
41627;SDS011;27321;50.816;6.054;2023-02-01T00:41:39;19.30;;;8.47;;
41627;SDS011;27321;50.816;6.054;2023-02-01T00:44:40;17.47;;;8.70;;
41627;SDS011;27321;50.816;6.054;2023-02-01T00:47:41;16.90;;;7.97;;
41627;SDS011;27321;50.816;6.054;2023-02-01T00:50:42;11.63;;;7.90;;
41627;SDS011;27321;50.816;6.054;2023-02-01T00:53:43;14.25;;;8.05;;
41627;SDS011;27321;50.816;6.054;2023-02-01T00:56:45;20.38;;;7.65;;
41627;SDS011;27321;50.816;6.054;2023-02-01T00:59:46;12.97;;;7.30;;
41627;SDS011;27321;50.816;6.054;2023-02-01T01:02:47;14.37;;;7.73;;
41627;SDS011;27321;50.816;6.054;2023-02-01T01:05:48;12.80;;;7.43;;
41627;SDS011;27321;50.816;6.054;2023-02-01T01:08:50;16.20;;;7.15;;
41627;SDS011;27321;50.816;6.054;2023-02-01T01:11:54;13.17;;;6.77;;
41627;SDS011;27321;50.816;6.054;2023-02-01T01:14:55;20.67;;;8.23;;
41627;SDS011;27321;50.816;6.054;2023-02-01T01:17:56;15.40;;;7.80;;
41627;SDS011;27321;50.816;6.054;2023-02-01T01:20:57;12.90;;;6.97;;
41627;SDS011;27321;50.816;6.054;2023-02-01T01:23:58;15.13;;;7.03;;
41627;SDS011;27321;50.816;6.054;2023-02-01T01:26:59;18.50;;;7.00;;
41627;SDS011;27321;50.816;6.054;2023-02-01T01:30:00;13.90;;;6.00;;
41627;SDS011;27321;50.816;6.054;2023-02-01T01:33:01;18.27;;;6.57;;
41627;SDS011;27321;50.816;6.054;2023-02-01T01:36:06;11.40;;;5.97;;
41627;SDS011;27321;50.816;6.054;2023-02-01T01:39:12;12.13;;;6.07;;
41627;SDS011;27321;50.816;6.054;2023-02-01T01:42:13;16.83;;;5.77;;
41627;SDS011;27321;50.816;6.054;2023-02-01T01:45:19;14.25;;;6.38;;
41627;SDS011;27321;50.816;6.054;2023-02-01T01:48:28;13.13;;;6.60;;
41627;SDS011;27321;50.816;6.054;2023-02-01T01:51:30;12.23;;;6.60;;
41627;SDS011;27321;50.816;6.054;2023-02-01T01:54:41;13.17;;;6.63;;
41627;SDS011;27321;50.816;6.054;2023-02-01T01:57:47;14.13;;;6.20;;
41627;SDS011;27321;50.816;6.054;2023-02-01T02:00:58;19.07;;;6.83;;
41627;SDS011;27321;50.816;6.054;2023-02-01T02:04:00;16.30;;;6.32;;
41627;SDS011;27321;50.816;6.054;2023-02-01T02:07:09;15.73;;;6.18;;
41627;SDS011;27321;50.816;6.054;2023-02-01T02:10:18;11.60;;;6.20;;
41627;SDS011;27321;50.816;6.054;2023-02-01T02:13:19;16.60;;;6.03;;
41627;SDS011;27321;50.816;6.054;2023-02-01T02:16:40;13.95;;;6.45;;
41627;SDS011;27321;50.816;6.054;2023-02-01T02:37:04;11.63;;;5.40;;
41627;SDS011;27321;50.816;6.054;2023-02-01T02:44:45;23.47;;;7.03;;
41627;SDS011;27321;50.816;6.054;2023-02-01T02:48:34;15.83;;;6.67;;
41627;SDS011;27321;50.816;6.054;2023-02-01T02:51:52;18.33;;;7.10;;
41627;SDS011;27321;50.816;6.054;2023-02-01T02:55:17;15.63;;;6.90;;
41627;SDS011;27321;50.816;6.054;2023-02-01T02:58:20;17.77;;;6.93;;
41627;SDS011;27321;50.816;6.054;2023-02-01T03:01:40;19.87;;;8.57;;
41627;SDS011;27321;50.816;6.054;2023-02-01T03:05:00;12.10;;;6.97;;
41627;SDS011;27321;50.816;6.054;2023-02-01T03:11:14;19.95;;;8.13;;
41627;SDS011;27321;50.816;6.054;2023-02-01T03:14:16;21.60;;;8.00;;
41627;SDS011;27321;50.816;6.054;2023-02-01T03:17:21;20.30;;;8.33;;
41627;SDS011;27321;50.816;6.054;2023-02-01T03:20:29;17.47;;;7.03;;
41627;SDS011;27321;50.816;6.054;2023-02-01T03:23:33;23.43;;;7.30;;
41627;SDS011;27321;50.816;6.054;2023-02-01T03:26:40;19.50;;;7.03;;
41627;SDS011;27321;50.816;6.054;2023-02-01T03:29:47;17.60;;;6.17;;
41627;SDS011;27321;50.816;6.054;2023-02-01T03:33:23;18.73;;;6.73;;
41627;SDS011;27321;50.816;6.054;2023-02-01T03:36:29;15.23;;;5.83;;
41627;SDS011;27321;50.816;6.054;2023-02-01T03:43:12;15.70;;;6.00;;
41627;SDS011;27321;50.816;6.054;2023-02-01T03:46:20;16.63;;;6.07;;
41627;SDS011;27321;50.816;6.054;2023-02-01T03:49:34;15.70;;;5.63;;
41627;SDS011;27321;50.816;6.054;2023-02-01T03:52:45;14.00;;;5.67;;
41627;SDS011;27321;50.816;6.054;2023-02-01T03:56:00;14.07;;;4.83;;
41627;SDS011;27321;50.816;6.054;2023-02-01T04:02:08;18.10;;;4.77;;
41627;SDS011;27321;50.816;6.054;2023-02-01T04:05:09;12.77;;;4.85;;
41627;SDS011;27321;50.816;6.054;2023-02-01T04:08:13;14.87;;;5.03;;
41627;SDS011;27321;50.816;6.054;2023-02-01T04:11:15;15.90;;;4.13;;
41627;SDS011;27321;50.816;6.054;2023-02-01T04:14:16;16.80;;;4.20;;
41627;SDS011;27321;50.816;6.054;2023-02-01T04:17:17;8.97;;;3.43;;
41627;SDS011;27321;50.816;6.054;2023-02-01T04:20:18;13.60;;;3.85;;
41627;SDS011;27321;50.816;6.054;2023-02-01T04:23:19;13.17;;;3.37;;
41627;SDS011;27321;50.816;6.054;2023-02-01T04:26:20;11.55;;;3.53;;
41627;SDS011;27321;50.816;6.054;2023-02-01T04:29:21;11.50;;;3.20;;
41627;SDS011;27321;50.816;6.054;2023-02-01T04:32:22;15.27;;;3.63;;
41627;SDS011;27321;50.816;6.054;2023-02-01T04:35:23;12.33;;;3.47;;
41627;SDS011;27321;50.816;6.054;2023-02-01T04:38:24;11.27;;;2.90;;
41627;SDS011;27321;50.816;6.054;2023-02-01T04:41:25;13.83;;;3.33;;
41627;SDS011;27321;50.816;6.054;2023-02-01T04:44:26;15.30;;;3.70;;
41627;SDS011;27321;50.816;6.054;2023-02-01T04:47:27;9.57;;;2.87;;
41627;SDS011;27321;50.816;6.054;2023-02-01T04:50:28;12.63;;;3.43;;
41627;SDS011;27321;50.816;6.054;2023-02-01T04:53:29;9.43;;;3.13;;
41627;SDS011;27321;50.816;6.054;2023-02-01T04:56:30;14.37;;;3.37;;
41627;SDS011;27321;50.816;6.054;2023-02-01T04:59:31;12.60;;;3.15;;
41627;SDS011;27321;50.816;6.054;2023-02-01T05:02:32;9.17;;;3.23;;
41627;SDS011;27321;50.816;6.054;2023-02-01T05:05:33;9.03;;;2.70;;
41627;SDS011;27321;50.816;6.054;2023-02-01T05:08:34;11.47;;;3.13;;
41627;SDS011;27321;50.816;6.054;2023-02-01T05:11:35;15.97;;;2.87;;
41627;SDS011;27321;50.816;6.054;2023-02-01T05:14:55;9.53;;;2.37;;
41627;SDS011;27321;50.816;6.054;2023-02-01T05:17:56;11.77;;;3.63;;
41627;SDS011;27321;50.816;6.054;2023-02-01T05:20:57;11.88;;;3.22;;
41627;SDS011;27321;50.816;6.054;2023-02-01T05:23:59;11.10;;;2.70;;
41627;SDS011;27321;50.816;6.054;2023-02-01T05:27:09;13.33;;;3.23;;
41627;SDS011;27321;50.816;6.054;2023-02-01T05:30:11;11.43;;;3.25;;
41627;SDS011;27321;50.816;6.054;2023-02-01T05:33:13;12.82;;;3.35;;
41627;SDS011;27321;50.816;6.054;2023-02-01T05:36:14;13.32;;;3.17;;
41627;SDS011;27321;50.816;6.054;2023-02-01T05:39:16;7.43;;;3.05;;
41627;SDS011;27321;50.816;6.054;2023-02-01T05:42:17;13.18;;;3.20;;
41627;SDS011;27321;50.816;6.054;2023-02-01T05:45:18;9.67;;;2.93;;
41627;SDS011;27321;50.816;6.054;2023-02-01T05:48:19;12.13;;;3.23;;
41627;SDS011;27321;50.816;6.054;2023-02-01T05:51:20;9.70;;;2.70;;
41627;SDS011;27321;50.816;6.054;2023-02-01T05:54:21;9.37;;;2.80;;
41627;SDS011;27321;50.816;6.054;2023-02-01T05:57:22;14.93;;;3.17;;
41627;SDS011;27321;50.816;6.054;2023-02-01T06:00:22;13.63;;;2.80;;
41627;SDS011;27321;50.816;6.054;2023-02-01T06:03:24;9.52;;;2.90;;
41627;SDS011;27321;50.816;6.054;2023-02-01T06:06:25;15.17;;;3.30;;
41627;SDS011;27321;50.816;6.054;2023-02-01T06:09:25;14.63;;;3.13;;
41627;SDS011;27321;50.816;6.054;2023-02-01T06:12:28;14.93;;;3.33;;
41627;SDS011;27321;50.816;6.054;2023-02-01T06:15:29;13.03;;;2.90;;
41627;SDS011;27321;50.816;6.054;2023-02-01T06:18:31;14.33;;;2.90;;
41627;SDS011;27321;50.816;6.054;2023-02-01T06:21:33;11.98;;;3.10;;
41627;SDS011;27321;50.816;6.054;2023-02-01T06:24:36;11.53;;;2.67;;
41627;SDS011;27321;50.816;6.054;2023-02-01T06:27:37;9.73;;;2.80;;
41627;SDS011;27321;50.816;6.054;2023-02-01T06:30:38;11.98;;;3.10;;
41627;SDS011;27321;50.816;6.054;2023-02-01T06:33:43;13.30;;;2.70;;
41627;SDS011;27321;50.816;6.054;2023-02-01T06:36:44;14.07;;;3.17;;
41627;SDS011;27321;50.816;6.054;2023-02-01T06:39:45;13.60;;;3.07;;
41627;SDS011;27321;50.816;6.054;2023-02-01T06:42:48;12.93;;;2.38;;
41627;SDS011;27321;50.816;6.054;2023-02-01T06:45:49;19.13;;;3.50;;
41627;SDS011;27321;50.816;6.054;2023-02-01T06:48:51;13.93;;;3.58;;
41627;SDS011;27321;50.816;6.054;2023-02-01T06:51:52;10.70;;;2.92;;
41627;SDS011;27321;50.816;6.054;2023-02-01T06:54:53;13.23;;;3.23;;
41627;SDS011;27321;50.816;6.054;2023-02-01T06:57:54;12.47;;;2.53;;
41627;SDS011;27321;50.816;6.054;2023-02-01T07:00:56;24.17;;;3.33;;
41627;SDS011;27321;50.816;6.054;2023-02-01T07:03:58;9.50;;;2.63;;
41627;SDS011;27321;50.816;6.054;2023-02-01T07:06:59;9.82;;;2.80;;
41627;SDS011;27321;50.816;6.054;2023-02-01T07:10:00;12.17;;;2.63;;
41627;SDS011;27321;50.816;6.054;2023-02-01T07:13:01;9.73;;;2.33;;
41627;SDS011;27321;50.816;6.054;2023-02-01T07:16:02;12.00;;;2.70;;
41627;SDS011;27321;50.816;6.054;2023-02-01T07:19:10;10.37;;;2.97;;
41627;SDS011;27321;50.816;6.054;2023-02-01T07:22:11;17.07;;;3.27;;
41627;SDS011;27321;50.816;6.054;2023-02-01T07:25:13;17.63;;;3.47;;
41627;SDS011;27321;50.816;6.054;2023-02-01T07:28:14;11.73;;;2.77;;
41627;SDS011;27321;50.816;6.054;2023-02-01T07:31:16;11.23;;;2.40;;
41627;SDS011;27321;50.816;6.054;2023-02-01T07:34:20;17.93;;;3.40;;
41627;SDS011;27321;50.816;6.054;2023-02-01T07:37:21;13.33;;;3.10;;
41627;SDS011;27321;50.816;6.054;2023-02-01T07:40:24;14.07;;;3.27;;
41627;SDS011;27321;50.816;6.054;2023-02-01T07:43:28;13.27;;;3.40;;
41627;SDS011;27321;50.816;6.054;2023-02-01T07:46:30;15.07;;;3.13;;
41627;SDS011;27321;50.816;6.054;2023-02-01T07:49:31;18.63;;;3.20;;
41627;SDS011;27321;50.816;6.054;2023-02-01T07:52:32;10.80;;;3.17;;
41627;SDS011;27321;50.816;6.054;2023-02-01T07:55:33;11.23;;;2.83;;
41627;SDS011;27321;50.816;6.054;2023-02-01T07:58:35;14.45;;;3.72;;
41627;SDS011;27321;50.816;6.054;2023-02-01T08:01:35;11.10;;;2.97;;
41627;SDS011;27321;50.816;6.054;2023-02-01T08:04:36;12.37;;;2.97;;
41627;SDS011;27321;50.816;6.054;2023-02-01T08:07:37;14.70;;;3.27;;
41627;SDS011;27321;50.816;6.054;2023-02-01T08:10:38;9.13;;;2.97;;
41627;SDS011;27321;50.816;6.054;2023-02-01T08:13:39;18.10;;;3.00;;
41627;SDS011;27321;50.816;6.054;2023-02-01T08:16:40;18.23;;;3.38;;
41627;SDS011;27321;50.816;6.054;2023-02-01T08:19:41;15.00;;;3.07;;
41627;SDS011;27321;50.816;6.054;2023-02-01T08:22:42;18.23;;;3.43;;
41627;SDS011;27321;50.816;6.054;2023-02-01T08:25:43;15.52;;;3.20;;
41627;SDS011;27321;50.816;6.054;2023-02-01T08:28:46;10.93;;;3.15;;
41627;SDS011;27321;50.816;6.054;2023-02-01T08:31:50;14.20;;;3.03;;
41627;SDS011;27321;50.816;6.054;2023-02-01T08:34:52;14.25;;;3.53;;
41627;SDS011;27321;50.816;6.054;2023-02-01T08:37:53;13.25;;;2.70;;
41627;SDS011;27321;50.816;6.054;2023-02-01T08:40:54;12.57;;;2.67;;
41627;SDS011;27321;50.816;6.054;2023-02-01T08:43:55;18.17;;;2.97;;
41627;SDS011;27321;50.816;6.054;2023-02-01T08:46:57;20.47;;;3.47;;
41627;SDS011;27321;50.816;6.054;2023-02-01T08:49:58;14.67;;;3.20;;
41627;SDS011;27321;50.816;6.054;2023-02-01T08:52:59;11.40;;;3.10;;
41627;SDS011;27321;50.816;6.054;2023-02-01T08:56:00;14.23;;;3.20;;
41627;SDS011;27321;50.816;6.054;2023-02-01T08:59:01;10.77;;;2.97;;
41627;SDS011;27321;50.816;6.054;2023-02-01T09:02:02;11.90;;;3.00;;
41627;SDS011;27321;50.816;6.054;2023-02-01T09:05:03;15.73;;;3.40;;
41627;SDS011;27321;50.816;6.054;2023-02-01T09:08:05;17.23;;;3.63;;
41627;SDS011;27321;50.816;6.054;2023-02-01T09:11:08;13.15;;;2.90;;
41627;SDS011;27321;50.816;6.054;2023-02-01T09:14:17;9.97;;;2.17;;
41627;SDS011;27321;50.816;6.054;2023-02-01T09:17:18;13.83;;;2.87;;
41627;SDS011;27321;50.816;6.054;2023-02-01T09:20:19;11.93;;;2.73;;
41627;SDS011;27321;50.816;6.054;2023-02-01T09:23:24;11.37;;;2.83;;
41627;SDS011;27321;50.816;6.054;2023-02-01T09:26:25;6.55;;;2.28;;
41627;SDS011;27321;50.816;6.054;2023-02-01T09:29:26;16.90;;;3.22;;
41627;SDS011;27321;50.816;6.054;2023-02-01T09:32:28;13.93;;;2.70;;
41627;SDS011;27321;50.816;6.054;2023-02-01T09:35:29;10.97;;;3.13;;
41627;SDS011;27321;50.816;6.054;2023-02-01T09:38:31;11.90;;;2.60;;
41627;SDS011;27321;50.816;6.054;2023-02-01T09:41:35;15.48;;;3.67;;
41627;SDS011;27321;50.816;6.054;2023-02-01T09:48:21;17.80;;;3.33;;
41627;SDS011;27321;50.816;6.054;2023-02-01T09:51:32;11.83;;;3.10;;
41627;SDS011;27321;50.816;6.054;2023-02-01T10:00:57;12.20;;;2.90;;
41627;SDS011;27321;50.816;6.054;2023-02-01T10:04:18;9.77;;;2.83;;
41627;SDS011;27321;50.816;6.054;2023-02-01T10:07:41;20.80;;;3.73;;
41627;SDS011;27321;50.816;6.054;2023-02-01T10:11:07;18.67;;;3.40;;
41627;SDS011;27321;50.816;6.054;2023-02-01T10:19:10;9.10;;;2.53;;
41627;SDS011;27321;50.816;6.054;2023-02-01T10:22:10;9.87;;;2.83;;
41627;SDS011;27321;50.816;6.054;2023-02-01T10:25:41;15.50;;;3.00;;
41627;SDS011;27321;50.816;6.054;2023-02-01T10:28:56;15.73;;;3.00;;
41627;SDS011;27321;50.816;6.054;2023-02-01T10:32:01;18.50;;;3.50;;
41627;SDS011;27321;50.816;6.054;2023-02-01T10:35:14;12.97;;;2.90;;
41627;SDS011;27321;50.816;6.054;2023-02-01T10:38:26;14.60;;;2.97;;
41627;SDS011;27321;50.816;6.054;2023-02-01T10:41:33;14.03;;;3.23;;
41627;SDS011;27321;50.816;6.054;2023-02-01T10:44:38;8.73;;;3.33;;
41627;SDS011;27321;50.816;6.054;2023-02-01T10:47:45;17.53;;;3.40;;
41627;SDS011;27321;50.816;6.054;2023-02-01T10:54:18;15.57;;;3.03;;
41627;SDS011;27321;50.816;6.054;2023-02-01T10:57:23;10.07;;;2.70;;
41627;SDS011;27321;50.816;6.054;2023-02-01T11:00:33;9.90;;;3.00;;
41627;SDS011;27321;50.816;6.054;2023-02-01T11:07:05;11.83;;;2.90;;
41627;SDS011;27321;50.816;6.054;2023-02-01T11:10:41;13.70;;;3.27;;
41627;SDS011;27321;50.816;6.054;2023-02-01T11:13:43;12.10;;;2.80;;
41627;SDS011;27321;50.816;6.054;2023-02-01T11:16:48;10.73;;;3.00;;
41627;SDS011;27321;50.816;6.054;2023-02-01T11:20:01;12.87;;;3.43;;
41627;SDS011;27321;50.816;6.054;2023-02-01T11:23:16;13.43;;;2.77;;
41627;SDS011;27321;50.816;6.054;2023-02-01T11:26:26;13.13;;;3.37;;
41627;SDS011;27321;50.816;6.054;2023-02-01T11:29:29;9.73;;;2.83;;
41627;SDS011;27321;50.816;6.054;2023-02-01T11:32:38;13.70;;;2.87;;
41627;SDS011;27321;50.816;6.054;2023-02-01T11:35:40;12.02;;;2.70;;
41627;SDS011;27321;50.816;6.054;2023-02-01T11:38:53;10.00;;;2.47;;
41627;SDS011;27321;50.816;6.054;2023-02-01T11:42:14;12.93;;;2.90;;
41627;SDS011;27321;50.816;6.054;2023-02-01T11:45:19;9.70;;;2.47;;
41627;SDS011;27321;50.816;6.054;2023-02-01T11:48:26;11.60;;;2.37;;
41627;SDS011;27321;50.816;6.054;2023-02-01T11:51:34;12.17;;;2.73;;
41627;SDS011;27321;50.816;6.054;2023-02-01T11:55:00;12.47;;;2.97;;
41627;SDS011;27321;50.816;6.054;2023-02-01T11:58:45;10.13;;;2.70;;
41627;SDS011;27321;50.816;6.054;2023-02-01T12:06:06;8.00;;;2.43;;
41627;SDS011;27321;50.816;6.054;2023-02-01T12:09:50;15.50;;;2.97;;
41627;SDS011;27321;50.816;6.054;2023-02-01T12:13:27;10.60;;;2.37;;
41627;SDS011;27321;50.816;6.054;2023-02-01T12:17:33;10.57;;;2.50;;
41627;SDS011;27321;50.816;6.054;2023-02-01T12:27:56;8.40;;;1.87;;
41627;SDS011;27321;50.816;6.054;2023-02-01T12:35:17;6.57;;;2.30;;
41627;SDS011;27321;50.816;6.054;2023-02-01T12:41:49;13.50;;;2.37;;
41627;SDS011;27321;50.816;6.054;2023-02-01T12:45:15;11.63;;;2.67;;
41627;SDS011;27321;50.816;6.054;2023-02-01T12:48:40;6.77;;;2.10;;
41627;SDS011;27321;50.816;6.054;2023-02-01T12:51:58;11.03;;;2.40;;
41627;SDS011;27321;50.816;6.054;2023-02-01T12:58:53;11.87;;;2.57;;
41627;SDS011;27321;50.816;6.054;2023-02-01T13:02:04;6.60;;;2.13;;
41627;SDS011;27321;50.816;6.054;2023-02-01T13:05:38;6.50;;;1.90;;
41627;SDS011;27321;50.816;6.054;2023-02-01T13:12:37;9.00;;;2.03;;
41627;SDS011;27321;50.816;6.054;2023-02-01T13:16:23;10.63;;;2.40;;
41627;SDS011;27321;50.816;6.054;2023-02-01T13:23:02;5.93;;;2.00;;
41627;SDS011;27321;50.816;6.054;2023-02-01T13:26:09;7.63;;;1.80;;
41627;SDS011;27321;50.816;6.054;2023-02-01T13:29:11;7.27;;;1.73;;
41627;SDS011;27321;50.816;6.054;2023-02-01T13:32:33;9.20;;;2.17;;
41627;SDS011;27321;50.816;6.054;2023-02-01T13:39:59;7.57;;;2.13;;
41627;SDS011;27321;50.816;6.054;2023-02-01T13:43:42;8.77;;;2.00;;
41627;SDS011;27321;50.816;6.054;2023-02-01T13:46:49;8.40;;;2.27;;
41627;SDS011;27321;50.816;6.054;2023-02-01T13:49:56;7.53;;;2.00;;
41627;SDS011;27321;50.816;6.054;2023-02-01T13:56:18;6.67;;;2.13;;
41627;SDS011;27321;50.816;6.054;2023-02-01T14:00:07;8.20;;;2.00;;
41627;SDS011;27321;50.816;6.054;2023-02-01T14:02:46;5.83;;;1.40;;
41627;SDS011;27321;50.816;6.054;2023-02-01T14:19:26;7.30;;;1.60;;
41627;SDS011;27321;50.816;6.054;2023-02-01T14:22:33;5.90;;;1.75;;
41627;SDS011;27321;50.816;6.054;2023-02-01T14:25:34;5.40;;;1.70;;
41627;SDS011;27321;50.816;6.054;2023-02-01T14:28:36;14.10;;;1.67;;
41627;SDS011;27321;50.816;6.054;2023-02-01T14:32:00;5.60;;;1.77;;
41627;SDS011;27321;50.816;6.054;2023-02-01T14:35:19;6.53;;;1.90;;
41627;SDS011;27321;50.816;6.054;2023-02-01T14:38:25;7.47;;;1.30;;
41627;SDS011;27321;50.816;6.054;2023-02-01T14:41:29;7.22;;;1.80;;
41627;SDS011;27321;50.816;6.054;2023-02-01T14:44:34;3.80;;;1.33;;
41627;SDS011;27321;50.816;6.054;2023-02-01T14:47:37;4.13;;;1.13;;
41627;SDS011;27321;50.816;6.054;2023-02-01T14:50:43;7.53;;;1.83;;
41627;SDS011;27321;50.816;6.054;2023-02-01T14:53:48;7.40;;;1.80;;
41627;SDS011;27321;50.816;6.054;2023-02-01T14:56:51;7.10;;;1.43;;
41627;SDS011;27321;50.816;6.054;2023-02-01T14:59:55;6.83;;;1.30;;
41627;SDS011;27321;50.816;6.054;2023-02-01T15:06:41;4.10;;;1.37;;
41627;SDS011;27321;50.816;6.054;2023-02-01T15:09:44;6.77;;;1.67;;
41627;SDS011;27321;50.816;6.054;2023-02-01T15:12:47;4.73;;;1.13;;
41627;SDS011;27321;50.816;6.054;2023-02-01T15:19:15;6.50;;;1.37;;
41627;SDS011;27321;50.816;6.054;2023-02-01T15:22:18;7.47;;;1.70;;
41627;SDS011;27321;50.816;6.054;2023-02-01T15:25:20;5.67;;;1.27;;
41627;SDS011;27321;50.816;6.054;2023-02-01T15:28:25;3.90;;;1.40;;
41627;SDS011;27321;50.816;6.054;2023-02-01T15:31:37;3.80;;;1.10;;
41627;SDS011;27321;50.816;6.054;2023-02-01T15:34:50;4.27;;;1.40;;
41627;SDS011;27321;50.816;6.054;2023-02-01T15:37:51;6.23;;;1.43;;
41627;SDS011;27321;50.816;6.054;2023-02-01T15:47:23;6.97;;;1.40;;
41627;SDS011;27321;50.816;6.054;2023-02-01T15:50:28;8.77;;;2.23;;
41627;SDS011;27321;50.816;6.054;2023-02-01T15:53:31;6.67;;;1.70;;
41627;SDS011;27321;50.816;6.054;2023-02-01T15:56:35;10.03;;;1.90;;
41627;SDS011;27321;50.816;6.054;2023-02-01T15:59:42;7.77;;;1.97;;
41627;SDS011;27321;50.816;6.054;2023-02-01T16:02:58;7.50;;;1.70;;
41627;SDS011;27321;50.816;6.054;2023-02-01T16:09:22;9.03;;;1.70;;
41627;SDS011;27321;50.816;6.054;2023-02-01T16:12:45;7.80;;;1.60;;
41627;SDS011;27321;50.816;6.054;2023-02-01T16:15:47;12.67;;;2.33;;
41627;SDS011;27321;50.816;6.054;2023-02-01T16:18:49;9.97;;;2.37;;
41627;SDS011;27321;50.816;6.054;2023-02-01T16:21:50;12.07;;;2.63;;
41627;SDS011;27321;50.816;6.054;2023-02-01T16:24:51;3.87;;;1.80;;
41627;SDS011;27321;50.816;6.054;2023-02-01T16:27:52;7.70;;;2.33;;
41627;SDS011;27321;50.816;6.054;2023-02-01T16:30:53;8.87;;;2.67;;
41627;SDS011;27321;50.816;6.054;2023-02-01T16:33:54;7.87;;;2.27;;
41627;SDS011;27321;50.816;6.054;2023-02-01T16:36:55;8.07;;;2.35;;
41627;SDS011;27321;50.816;6.054;2023-02-01T16:39:57;11.77;;;2.07;;
41627;SDS011;27321;50.816;6.054;2023-02-01T16:42:58;10.10;;;1.90;;
41627;SDS011;27321;50.816;6.054;2023-02-01T16:45:59;10.50;;;2.50;;
41627;SDS011;27321;50.816;6.054;2023-02-01T16:49:04;7.20;;;2.30;;
41627;SDS011;27321;50.816;6.054;2023-02-01T16:52:08;9.13;;;2.65;;
41627;SDS011;27321;50.816;6.054;2023-02-01T16:55:22;8.87;;;2.47;;
41627;SDS011;27321;50.816;6.054;2023-02-01T16:58:24;10.43;;;2.23;;
41627;SDS011;27321;50.816;6.054;2023-02-01T17:01:26;12.43;;;2.53;;
41627;SDS011;27321;50.816;6.054;2023-02-01T17:04:27;8.07;;;2.50;;
41627;SDS011;27321;50.816;6.054;2023-02-01T17:07:28;7.17;;;2.40;;
41627;SDS011;27321;50.816;6.054;2023-02-01T17:10:30;14.52;;;2.85;;
41627;SDS011;27321;50.816;6.054;2023-02-01T17:13:31;8.98;;;2.20;;
41627;SDS011;27321;50.816;6.054;2023-02-01T17:16:33;7.37;;;2.43;;
41627;SDS011;27321;50.816;6.054;2023-02-01T17:19:34;10.30;;;2.50;;
41627;SDS011;27321;50.816;6.054;2023-02-01T17:22:35;10.40;;;2.73;;
41627;SDS011;27321;50.816;6.054;2023-02-01T17:25:36;15.50;;;2.50;;
41627;SDS011;27321;50.816;6.054;2023-02-01T17:28:37;7.47;;;2.73;;
41627;SDS011;27321;50.816;6.054;2023-02-01T17:31:39;13.47;;;3.13;;
41627;SDS011;27321;50.816;6.054;2023-02-01T17:34:43;11.17;;;2.70;;
41627;SDS011;27321;50.816;6.054;2023-02-01T17:37:45;7.82;;;2.58;;
41627;SDS011;27321;50.816;6.054;2023-02-01T17:40:46;6.90;;;2.25;;
41627;SDS011;27321;50.816;6.054;2023-02-01T17:43:48;12.73;;;2.83;;
41627;SDS011;27321;50.816;6.054;2023-02-01T17:46:51;16.33;;;2.97;;
41627;SDS011;27321;50.816;6.054;2023-02-01T17:49:53;14.88;;;3.00;;
41627;SDS011;27321;50.816;6.054;2023-02-01T17:52:56;9.40;;;2.57;;
41627;SDS011;27321;50.816;6.054;2023-02-01T17:55:58;10.90;;;2.80;;
41627;SDS011;27321;50.816;6.054;2023-02-01T17:59:00;12.77;;;3.13;;
41627;SDS011;27321;50.816;6.054;2023-02-01T18:02:01;10.38;;;3.45;;
41627;SDS011;27321;50.816;6.054;2023-02-01T18:05:07;12.97;;;3.13;;
41627;SDS011;27321;50.816;6.054;2023-02-01T18:08:17;11.53;;;2.93;;
41627;SDS011;27321;50.816;6.054;2023-02-01T18:11:23;9.30;;;2.50;;
41627;SDS011;27321;50.816;6.054;2023-02-01T18:14:24;9.18;;;2.67;;
41627;SDS011;27321;50.816;6.054;2023-02-01T18:17:25;6.07;;;2.67;;
41627;SDS011;27321;50.816;6.054;2023-02-01T18:20:26;9.00;;;2.50;;
41627;SDS011;27321;50.816;6.054;2023-02-01T18:23:27;10.53;;;2.90;;
41627;SDS011;27321;50.816;6.054;2023-02-01T18:26:29;10.95;;;2.75;;
41627;SDS011;27321;50.816;6.054;2023-02-01T18:29:30;8.55;;;2.95;;
41627;SDS011;27321;50.816;6.054;2023-02-01T18:32:31;13.33;;;3.07;;
41627;SDS011;27321;50.816;6.054;2023-02-01T18:35:32;9.20;;;2.50;;
41627;SDS011;27321;50.816;6.054;2023-02-01T18:38:33;6.47;;;1.77;;
41627;SDS011;27321;50.816;6.054;2023-02-01T18:41:34;13.40;;;2.87;;
41627;SDS011;27321;50.816;6.054;2023-02-01T18:44:35;10.10;;;2.60;;
41627;SDS011;27321;50.816;6.054;2023-02-01T18:47:36;6.47;;;2.60;;
41627;SDS011;27321;50.816;6.054;2023-02-01T18:50:38;9.60;;;2.40;;
41627;SDS011;27321;50.816;6.054;2023-02-01T18:53:41;7.10;;;2.73;;
41627;SDS011;27321;50.816;6.054;2023-02-01T18:56:42;7.88;;;2.40;;
41627;SDS011;27321;50.816;6.054;2023-02-01T18:59:43;10.33;;;2.80;;
41627;SDS011;27321;50.816;6.054;2023-02-01T19:02:44;18.23;;;3.15;;
41627;SDS011;27321;50.816;6.054;2023-02-01T19:08:48;6.22;;;1.98;;
41627;SDS011;27321;50.816;6.054;2023-02-01T19:11:50;10.03;;;2.43;;
41627;SDS011;27321;50.816;6.054;2023-02-01T19:14:51;8.90;;;2.77;;
41627;SDS011;27321;50.816;6.054;2023-02-01T19:17:53;10.18;;;2.63;;
41627;SDS011;27321;50.816;6.054;2023-02-01T19:20:54;11.00;;;2.83;;
41627;SDS011;27321;50.816;6.054;2023-02-01T19:24:03;13.90;;;3.23;;
41627;SDS011;27321;50.816;6.054;2023-02-01T19:27:05;15.55;;;2.80;;
41627;SDS011;27321;50.816;6.054;2023-02-01T19:30:07;10.85;;;3.03;;
41627;SDS011;27321;50.816;6.054;2023-02-01T19:33:10;12.57;;;2.97;;
41627;SDS011;27321;50.816;6.054;2023-02-01T19:36:12;13.48;;;3.30;;
41627;SDS011;27321;50.816;6.054;2023-02-01T19:39:12;10.03;;;2.87;;
41627;SDS011;27321;50.816;6.054;2023-02-01T19:42:13;10.20;;;3.27;;
41627;SDS011;27321;50.816;6.054;2023-02-01T19:45:14;12.57;;;3.27;;
41627;SDS011;27321;50.816;6.054;2023-02-01T19:48:16;12.93;;;2.75;;
41627;SDS011;27321;50.816;6.054;2023-02-01T19:54:18;15.40;;;2.97;;
41627;SDS011;27321;50.816;6.054;2023-02-01T19:57:20;13.43;;;3.05;;
41627;SDS011;27321;50.816;6.054;2023-02-01T20:00:21;11.73;;;3.13;;
41627;SDS011;27321;50.816;6.054;2023-02-01T20:03:22;15.65;;;3.38;;
41627;SDS011;27321;50.816;6.054;2023-02-01T20:06:24;13.52;;;3.20;;
41627;SDS011;27321;50.816;6.054;2023-02-01T20:09:25;17.27;;;3.00;;
41627;SDS011;27321;50.816;6.054;2023-02-01T20:12:31;14.37;;;3.27;;
41627;SDS011;27321;50.816;6.054;2023-02-01T20:15:32;15.77;;;3.55;;
41627;SDS011;27321;50.816;6.054;2023-02-01T20:18:33;14.00;;;3.53;;
41627;SDS011;27321;50.816;6.054;2023-02-01T20:21:36;13.63;;;3.30;;
41627;SDS011;27321;50.816;6.054;2023-02-01T20:24:38;11.40;;;3.27;;
41627;SDS011;27321;50.816;6.054;2023-02-01T20:27:39;13.60;;;3.47;;
41627;SDS011;27321;50.816;6.054;2023-02-01T20:30:44;11.57;;;3.17;;
41627;SDS011;27321;50.816;6.054;2023-02-01T20:33:46;13.03;;;3.33;;
41627;SDS011;27321;50.816;6.054;2023-02-01T20:36:47;20.00;;;3.63;;